sensor_id;sensor_type;location;lat;lon;timestamp;temperature;humidity
18173;DHT22;9211;48.818;9.312;2022-10-16T00:00:47;16.40;99.90
18173;DHT22;9211;48.818;9.312;2022-10-16T00:03:14;16.40;99.90
18173;DHT22;9211;48.818;9.312;2022-10-16T00:05:42;16.40;99.90
18173;DHT22;9211;48.818;9.312;2022-10-16T00:08:11;16.40;99.90
18173;DHT22;9211;48.818;9.312;2022-10-16T00:10:40;16.40;99.90
18173;DHT22;9211;48.818;9.312;2022-10-16T00:13:07;16.40;99.90
18173;DHT22;9211;48.818;9.312;2022-10-16T00:15:35;16.40;99.90
18173;DHT22;9211;48.818;9.312;2022-10-16T00:18:05;16.40;99.90
18173;DHT22;9211;48.818;9.312;2022-10-16T00:20:34;16.40;99.90
18173;DHT22;9211;48.818;9.312;2022-10-16T00:23:03;16.30;99.90
18173;DHT22;9211;48.818;9.312;2022-10-16T00:25:30;16.30;99.90
18173;DHT22;9211;48.818;9.312;2022-10-16T00:28:00;16.30;99.90
18173;DHT22;9211;48.818;9.312;2022-10-16T00:30:27;16.20;99.90
18173;DHT22;9211;48.818;9.312;2022-10-16T00:32:54;16.30;99.90
18173;DHT22;9211;48.818;9.312;2022-10-16T00:35:21;16.20;99.90
18173;DHT22;9211;48.818;9.312;2022-10-16T00:37:48;16.20;99.90
18173;DHT22;9211;48.818;9.312;2022-10-16T00:40:16;16.10;99.90
18173;DHT22;9211;48.818;9.312;2022-10-16T00:42:43;16.10;99.90
18173;DHT22;9211;48.818;9.312;2022-10-16T00:45:11;16.10;99.90
18173;DHT22;9211;48.818;9.312;2022-10-16T00:47:41;16.00;99.90
18173;DHT22;9211;48.818;9.312;2022-10-16T00:50:16;16.00;99.90
18173;DHT22;9211;48.818;9.312;2022-10-16T00:52:46;16.00;99.90
18173;DHT22;9211;48.818;9.312;2022-10-16T00:55:15;16.00;99.90
18173;DHT22;9211;48.818;9.312;2022-10-16T00:57:42;16.00;99.90
18173;DHT22;9211;48.818;9.312;2022-10-16T01:00:15;16.00;99.90
18173;DHT22;9211;48.818;9.312;2022-10-16T01:02:42;15.90;99.90
18173;DHT22;9211;48.818;9.312;2022-10-16T01:05:09;15.80;99.90
18173;DHT22;9211;48.818;9.312;2022-10-16T01:07:41;15.80;99.90
18173;DHT22;9211;48.818;9.312;2022-10-16T01:10:20;15.80;99.90
18173;DHT22;9211;48.818;9.312;2022-10-16T01:12:57;15.80;99.90
18173;DHT22;9211;48.818;9.312;2022-10-16T01:15:30;15.70;99.90
18173;DHT22;9211;48.818;9.312;2022-10-16T01:18:04;15.70;99.90
18173;DHT22;9211;48.818;9.312;2022-10-16T01:20:35;15.80;99.90
18173;DHT22;9211;48.818;9.312;2022-10-16T01:23:10;15.80;99.90
18173;DHT22;9211;48.818;9.312;2022-10-16T01:28:47;15.80;99.90
18173;DHT22;9211;48.818;9.312;2022-10-16T01:31:18;15.80;99.90
18173;DHT22;9211;48.818;9.312;2022-10-16T01:33:49;15.90;99.90
18173;DHT22;9211;48.818;9.312;2022-10-16T01:36:21;15.80;99.90
18173;DHT22;9211;48.818;9.312;2022-10-16T01:38:51;15.80;99.90
18173;DHT22;9211;48.818;9.312;2022-10-16T01:41:22;15.90;99.90
18173;DHT22;9211;48.818;9.312;2022-10-16T01:43:57;15.90;99.90
18173;DHT22;9211;48.818;9.312;2022-10-16T01:46:30;15.90;99.90
18173;DHT22;9211;48.818;9.312;2022-10-16T01:49:00;16.00;99.90
18173;DHT22;9211;48.818;9.312;2022-10-16T01:51:29;16.00;99.90
18173;DHT22;9211;48.818;9.312;2022-10-16T01:53:58;16.00;99.90
18173;DHT22;9211;48.818;9.312;2022-10-16T01:56:27;16.00;99.90
18173;DHT22;9211;48.818;9.312;2022-10-16T01:59:00;16.00;99.90
18173;DHT22;9211;48.818;9.312;2022-10-16T02:01:30;16.00;99.90
18173;DHT22;9211;48.818;9.312;2022-10-16T02:04:02;16.00;99.90
18173;DHT22;9211;48.818;9.312;2022-10-16T02:06:31;16.00;99.90
18173;DHT22;9211;48.818;9.312;2022-10-16T02:08:59;15.90;99.90
18173;DHT22;9211;48.818;9.312;2022-10-16T02:11:26;16.00;99.90
18173;DHT22;9211;48.818;9.312;2022-10-16T02:13:58;15.90;99.90
18173;DHT22;9211;48.818;9.312;2022-10-16T02:16:33;15.90;99.90
18173;DHT22;9211;48.818;9.312;2022-10-16T02:19:01;15.90;99.90
18173;DHT22;9211;48.818;9.312;2022-10-16T02:21:30;15.90;99.90
18173;DHT22;9211;48.818;9.312;2022-10-16T02:24:03;15.90;99.90
18173;DHT22;9211;48.818;9.312;2022-10-16T02:26:37;15.90;99.90
18173;DHT22;9211;48.818;9.312;2022-10-16T02:29:11;15.90;99.90
18173;DHT22;9211;48.818;9.312;2022-10-16T02:31:44;15.90;99.90
18173;DHT22;9211;48.818;9.312;2022-10-16T02:34:13;15.90;99.90
18173;DHT22;9211;48.818;9.312;2022-10-16T02:36:42;15.90;99.90
18173;DHT22;9211;48.818;9.312;2022-10-16T02:39:10;15.90;99.90
18173;DHT22;9211;48.818;9.312;2022-10-16T02:41:37;15.90;99.90
18173;DHT22;9211;48.818;9.312;2022-10-16T02:44:04;15.90;99.90
18173;DHT22;9211;48.818;9.312;2022-10-16T02:46:33;15.90;99.90
18173;DHT22;9211;48.818;9.312;2022-10-16T02:49:00;15.90;99.90
18173;DHT22;9211;48.818;9.312;2022-10-16T02:51:27;15.90;99.90
18173;DHT22;9211;48.818;9.312;2022-10-16T02:53:54;15.80;99.90
18173;DHT22;9211;48.818;9.312;2022-10-16T02:56:21;15.80;99.90
18173;DHT22;9211;48.818;9.312;2022-10-16T02:58:48;15.90;99.90
18173;DHT22;9211;48.818;9.312;2022-10-16T03:01:14;15.90;99.90
18173;DHT22;9211;48.818;9.312;2022-10-16T03:03:43;15.80;99.90
18173;DHT22;9211;48.818;9.312;2022-10-16T03:06:11;15.90;99.90
18173;DHT22;9211;48.818;9.312;2022-10-16T03:08:38;15.80;99.90
18173;DHT22;9211;48.818;9.312;2022-10-16T03:11:05;15.80;99.90
18173;DHT22;9211;48.818;9.312;2022-10-16T03:13:32;15.80;99.90
18173;DHT22;9211;48.818;9.312;2022-10-16T03:15:59;15.80;99.90
18173;DHT22;9211;48.818;9.312;2022-10-16T03:18:26;15.80;99.90
18173;DHT22;9211;48.818;9.312;2022-10-16T03:20:54;15.70;99.90
18173;DHT22;9211;48.818;9.312;2022-10-16T03:23:21;15.70;99.90
18173;DHT22;9211;48.818;9.312;2022-10-16T03:25:48;15.70;99.90
18173;DHT22;9211;48.818;9.312;2022-10-16T03:28:15;15.70;99.90
18173;DHT22;9211;48.818;9.312;2022-10-16T03:30:43;15.60;99.90
18173;DHT22;9211;48.818;9.312;2022-10-16T03:33:10;15.60;99.90
18173;DHT22;9211;48.818;9.312;2022-10-16T03:35:37;15.60;99.90
18173;DHT22;9211;48.818;9.312;2022-10-16T03:38:05;15.60;99.90
18173;DHT22;9211;48.818;9.312;2022-10-16T03:40:32;15.60;99.90
18173;DHT22;9211;48.818;9.312;2022-10-16T03:42:59;15.60;99.90
18173;DHT22;9211;48.818;9.312;2022-10-16T03:45:26;15.60;99.90
18173;DHT22;9211;48.818;9.312;2022-10-16T03:47:53;15.60;99.90
18173;DHT22;9211;48.818;9.312;2022-10-16T03:50:20;15.60;99.90
18173;DHT22;9211;48.818;9.312;2022-10-16T03:52:47;15.50;99.90
18173;DHT22;9211;48.818;9.312;2022-10-16T03:55:15;15.50;99.90
18173;DHT22;9211;48.818;9.312;2022-10-16T03:57:42;15.50;99.90
18173;DHT22;9211;48.818;9.312;2022-10-16T04:00:11;15.50;99.90
18173;DHT22;9211;48.818;9.312;2022-10-16T04:02:38;15.40;99.90
18173;DHT22;9211;48.818;9.312;2022-10-16T04:05:06;15.40;99.90
18173;DHT22;9211;48.818;9.312;2022-10-16T04:07:33;15.40;99.90
18173;DHT22;9211;48.818;9.312;2022-10-16T04:10:00;15.30;99.90
18173;DHT22;9211;48.818;9.312;2022-10-16T04:12:28;15.30;99.90
18173;DHT22;9211;48.818;9.312;2022-10-16T04:14:55;15.30;99.90
18173;DHT22;9211;48.818;9.312;2022-10-16T04:17:22;15.30;99.90
18173;DHT22;9211;48.818;9.312;2022-10-16T04:19:49;15.30;99.90
18173;DHT22;9211;48.818;9.312;2022-10-16T04:22:16;15.30;99.90
18173;DHT22;9211;48.818;9.312;2022-10-16T04:24:43;15.30;99.90
18173;DHT22;9211;48.818;9.312;2022-10-16T04:27:10;15.30;99.90
18173;DHT22;9211;48.818;9.312;2022-10-16T04:29:38;15.30;99.90
18173;DHT22;9211;48.818;9.312;2022-10-16T04:32:06;15.30;99.90
18173;DHT22;9211;48.818;9.312;2022-10-16T04:34:34;15.20;99.90
18173;DHT22;9211;48.818;9.312;2022-10-16T04:37:01;15.20;99.90
18173;DHT22;9211;48.818;9.312;2022-10-16T04:39:28;15.20;99.90
18173;DHT22;9211;48.818;9.312;2022-10-16T04:41:55;15.20;99.90
18173;DHT22;9211;48.818;9.312;2022-10-16T04:44:22;15.20;99.90
18173;DHT22;9211;48.818;9.312;2022-10-16T04:46:51;15.20;99.90
18173;DHT22;9211;48.818;9.312;2022-10-16T04:49:18;15.20;99.90
18173;DHT22;9211;48.818;9.312;2022-10-16T04:51:45;15.20;99.90
18173;DHT22;9211;48.818;9.312;2022-10-16T04:54:12;15.20;99.90
18173;DHT22;9211;48.818;9.312;2022-10-16T04:56:39;15.30;99.90
18173;DHT22;9211;48.818;9.312;2022-10-16T04:59:12;15.30;99.90
18173;DHT22;9211;48.818;9.312;2022-10-16T05:01:39;15.20;99.90
18173;DHT22;9211;48.818;9.312;2022-10-16T05:04:08;15.20;99.90
18173;DHT22;9211;48.818;9.312;2022-10-16T05:06:36;15.20;99.90
18173;DHT22;9211;48.818;9.312;2022-10-16T05:09:04;15.20;99.90
18173;DHT22;9211;48.818;9.312;2022-10-16T05:11:31;15.10;99.90
18173;DHT22;9211;48.818;9.312;2022-10-16T05:13:58;15.10;99.90
18173;DHT22;9211;48.818;9.312;2022-10-16T05:16:26;15.20;99.90
18173;DHT22;9211;48.818;9.312;2022-10-16T05:18:53;15.10;99.90
18173;DHT22;9211;48.818;9.312;2022-10-16T05:21:21;15.10;99.90
18173;DHT22;9211;48.818;9.312;2022-10-16T05:23:48;15.20;99.90
18173;DHT22;9211;48.818;9.312;2022-10-16T05:26:15;15.10;99.90
18173;DHT22;9211;48.818;9.312;2022-10-16T05:28:42;15.10;99.90
18173;DHT22;9211;48.818;9.312;2022-10-16T05:31:10;15.10;99.90
18173;DHT22;9211;48.818;9.312;2022-10-16T05:33:37;15.10;99.90
18173;DHT22;9211;48.818;9.312;2022-10-16T05:36:05;15.10;99.90
18173;DHT22;9211;48.818;9.312;2022-10-16T05:38:35;15.10;99.90
18173;DHT22;9211;48.818;9.312;2022-10-16T05:41:03;15.10;99.90
18173;DHT22;9211;48.818;9.312;2022-10-16T05:43:31;15.10;99.90
18173;DHT22;9211;48.818;9.312;2022-10-16T05:45:59;15.10;99.90
18173;DHT22;9211;48.818;9.312;2022-10-16T05:48:27;15.00;99.90
18173;DHT22;9211;48.818;9.312;2022-10-16T05:50:57;15.00;99.90
18173;DHT22;9211;48.818;9.312;2022-10-16T05:53:25;15.00;99.90
18173;DHT22;9211;48.818;9.312;2022-10-16T05:55:54;15.00;99.90
18173;DHT22;9211;48.818;9.312;2022-10-16T05:58:21;15.00;99.90
18173;DHT22;9211;48.818;9.312;2022-10-16T06:00:55;15.00;99.90
18173;DHT22;9211;48.818;9.312;2022-10-16T06:03:22;15.00;99.90
18173;DHT22;9211;48.818;9.312;2022-10-16T06:05:51;14.90;99.90
18173;DHT22;9211;48.818;9.312;2022-10-16T06:08:18;14.90;99.90
18173;DHT22;9211;48.818;9.312;2022-10-16T06:10:46;14.90;99.90
18173;DHT22;9211;48.818;9.312;2022-10-16T06:13:15;14.90;99.90
18173;DHT22;9211;48.818;9.312;2022-10-16T06:15:42;14.90;99.90
18173;DHT22;9211;48.818;9.312;2022-10-16T06:18:10;15.00;99.90
18173;DHT22;9211;48.818;9.312;2022-10-16T06:20:37;15.00;99.90
18173;DHT22;9211;48.818;9.312;2022-10-16T06:23:04;15.00;99.90
18173;DHT22;9211;48.818;9.312;2022-10-16T06:25:31;15.00;99.90
18173;DHT22;9211;48.818;9.312;2022-10-16T06:27:59;15.00;99.90
18173;DHT22;9211;48.818;9.312;2022-10-16T06:30:27;15.00;99.90
18173;DHT22;9211;48.818;9.312;2022-10-16T06:32:54;15.00;99.90
18173;DHT22;9211;48.818;9.312;2022-10-16T06:35:21;15.10;99.90
18173;DHT22;9211;48.818;9.312;2022-10-16T06:37:49;15.10;99.90
18173;DHT22;9211;48.818;9.312;2022-10-16T06:40:16;15.10;99.90
18173;DHT22;9211;48.818;9.312;2022-10-16T06:42:43;15.10;99.90
18173;DHT22;9211;48.818;9.312;2022-10-16T06:45:10;15.10;99.90
18173;DHT22;9211;48.818;9.312;2022-10-16T06:47:39;15.10;99.90
18173;DHT22;9211;48.818;9.312;2022-10-16T06:50:07;15.20;99.90
18173;DHT22;9211;48.818;9.312;2022-10-16T06:52:34;15.20;99.90
18173;DHT22;9211;48.818;9.312;2022-10-16T06:55:01;15.20;99.90
18173;DHT22;9211;48.818;9.312;2022-10-16T06:57:28;15.30;99.90
18173;DHT22;9211;48.818;9.312;2022-10-16T06:59:56;15.30;99.90
18173;DHT22;9211;48.818;9.312;2022-10-16T07:02:23;15.30;99.90
18173;DHT22;9211;48.818;9.312;2022-10-16T07:04:51;15.40;99.90
18173;DHT22;9211;48.818;9.312;2022-10-16T07:07:18;15.40;99.90
18173;DHT22;9211;48.818;9.312;2022-10-16T07:09:45;15.50;99.90
18173;DHT22;9211;48.818;9.312;2022-10-16T07:12:12;15.50;99.90
18173;DHT22;9211;48.818;9.312;2022-10-16T07:14:39;15.50;99.90
18173;DHT22;9211;48.818;9.312;2022-10-16T07:17:06;15.60;99.90
18173;DHT22;9211;48.818;9.312;2022-10-16T07:19:33;15.60;99.90
18173;DHT22;9211;48.818;9.312;2022-10-16T07:22:01;15.70;99.90
18173;DHT22;9211;48.818;9.312;2022-10-16T07:24:28;15.70;99.90
18173;DHT22;9211;48.818;9.312;2022-10-16T07:26:55;15.80;99.90
18173;DHT22;9211;48.818;9.312;2022-10-16T07:29:22;15.80;99.90
18173;DHT22;9211;48.818;9.312;2022-10-16T07:31:49;15.80;99.90
18173;DHT22;9211;48.818;9.312;2022-10-16T07:34:20;15.80;99.90
18173;DHT22;9211;48.818;9.312;2022-10-16T07:36:48;15.80;99.90
18173;DHT22;9211;48.818;9.312;2022-10-16T07:39:17;15.90;99.90
18173;DHT22;9211;48.818;9.312;2022-10-16T07:41:44;15.80;99.90
18173;DHT22;9211;48.818;9.312;2022-10-16T07:44:11;15.80;99.90
18173;DHT22;9211;48.818;9.312;2022-10-16T07:46:38;15.80;99.90
18173;DHT22;9211;48.818;9.312;2022-10-16T07:49:05;15.80;99.90
18173;DHT22;9211;48.818;9.312;2022-10-16T07:51:32;15.80;99.90
18173;DHT22;9211;48.818;9.312;2022-10-16T07:53:59;15.80;99.90
18173;DHT22;9211;48.818;9.312;2022-10-16T07:56:30;15.90;99.90
18173;DHT22;9211;48.818;9.312;2022-10-16T07:58:57;15.90;99.90
18173;DHT22;9211;48.818;9.312;2022-10-16T08:01:24;15.90;99.90
18173;DHT22;9211;48.818;9.312;2022-10-16T08:03:52;16.00;99.90
18173;DHT22;9211;48.818;9.312;2022-10-16T08:06:20;16.10;99.90
18173;DHT22;9211;48.818;9.312;2022-10-16T08:08:47;16.10;99.90
18173;DHT22;9211;48.818;9.312;2022-10-16T08:11:14;16.20;99.90
18173;DHT22;9211;48.818;9.312;2022-10-16T08:13:43;16.20;99.90
18173;DHT22;9211;48.818;9.312;2022-10-16T08:16:10;16.30;99.90
18173;DHT22;9211;48.818;9.312;2022-10-16T08:18:39;16.30;99.90
18173;DHT22;9211;48.818;9.312;2022-10-16T08:21:07;16.40;99.90
18173;DHT22;9211;48.818;9.312;2022-10-16T08:23:38;16.50;99.90
18173;DHT22;9211;48.818;9.312;2022-10-16T08:26:06;16.60;99.90
18173;DHT22;9211;48.818;9.312;2022-10-16T08:28:34;16.70;99.90
18173;DHT22;9211;48.818;9.312;2022-10-16T08:31:11;16.70;99.90
18173;DHT22;9211;48.818;9.312;2022-10-16T08:33:39;16.80;99.90
18173;DHT22;9211;48.818;9.312;2022-10-16T08:36:07;16.90;99.90
18173;DHT22;9211;48.818;9.312;2022-10-16T08:38:34;17.00;99.90
18173;DHT22;9211;48.818;9.312;2022-10-16T08:41:18;17.10;99.90
18173;DHT22;9211;48.818;9.312;2022-10-16T08:44:04;17.20;99.90
18173;DHT22;9211;48.818;9.312;2022-10-16T08:46:43;17.30;99.90
18173;DHT22;9211;48.818;9.312;2022-10-16T08:49:13;17.40;99.90
18173;DHT22;9211;48.818;9.312;2022-10-16T08:51:40;17.50;99.90
18173;DHT22;9211;48.818;9.312;2022-10-16T08:54:21;17.60;99.90
18173;DHT22;9211;48.818;9.312;2022-10-16T08:56:49;17.70;99.90
18173;DHT22;9211;48.818;9.312;2022-10-16T08:59:19;17.70;99.90
18173;DHT22;9211;48.818;9.312;2022-10-16T09:01:50;17.80;99.90
18173;DHT22;9211;48.818;9.312;2022-10-16T09:04:46;17.90;99.90
18173;DHT22;9211;48.818;9.312;2022-10-16T09:07:21;17.90;99.90
18173;DHT22;9211;48.818;9.312;2022-10-16T09:10:13;18.00;99.90
18173;DHT22;9211;48.818;9.312;2022-10-16T09:12:48;18.00;99.90
18173;DHT22;9211;48.818;9.312;2022-10-16T09:15:25;18.10;99.90
18173;DHT22;9211;48.818;9.312;2022-10-16T09:18:01;18.20;99.90
18173;DHT22;9211;48.818;9.312;2022-10-16T09:20:38;18.20;99.90
18173;DHT22;9211;48.818;9.312;2022-10-16T09:23:14;18.30;99.90
18173;DHT22;9211;48.818;9.312;2022-10-16T09:25:44;18.30;99.90
18173;DHT22;9211;48.818;9.312;2022-10-16T09:28:13;18.30;99.90
18173;DHT22;9211;48.818;9.312;2022-10-16T09:30:40;18.30;99.90
18173;DHT22;9211;48.818;9.312;2022-10-16T09:33:10;18.40;99.90
18173;DHT22;9211;48.818;9.312;2022-10-16T09:35:39;18.40;99.90
18173;DHT22;9211;48.818;9.312;2022-10-16T09:38:07;18.40;99.90
18173;DHT22;9211;48.818;9.312;2022-10-16T09:40:36;18.40;99.90
18173;DHT22;9211;48.818;9.312;2022-10-16T09:43:22;18.40;99.90
18173;DHT22;9211;48.818;9.312;2022-10-16T09:45:58;18.30;99.90
18173;DHT22;9211;48.818;9.312;2022-10-16T09:48:28;18.40;99.90
18173;DHT22;9211;48.818;9.312;2022-10-16T09:50:59;18.30;99.90
18173;DHT22;9211;48.818;9.312;2022-10-16T09:53:40;18.30;99.90
18173;DHT22;9211;48.818;9.312;2022-10-16T09:56:10;18.40;99.90
18173;DHT22;9211;48.818;9.312;2022-10-16T09:58:42;18.40;99.90
18173;DHT22;9211;48.818;9.312;2022-10-16T10:01:13;18.40;99.90
18173;DHT22;9211;48.818;9.312;2022-10-16T10:03:43;18.40;99.90
18173;DHT22;9211;48.818;9.312;2022-10-16T10:06:21;18.40;99.90
18173;DHT22;9211;48.818;9.312;2022-10-16T10:09:05;18.50;99.90
18173;DHT22;9211;48.818;9.312;2022-10-16T10:11:50;18.70;99.90
18173;DHT22;9211;48.818;9.312;2022-10-16T10:14:21;18.80;99.90
18173;DHT22;9211;48.818;9.312;2022-10-16T10:16:49;18.90;99.90
18173;DHT22;9211;48.818;9.312;2022-10-16T10:19:19;18.90;99.90
18173;DHT22;9211;48.818;9.312;2022-10-16T10:21:48;19.00;99.90
18173;DHT22;9211;48.818;9.312;2022-10-16T10:24:16;19.00;99.90
18173;DHT22;9211;48.818;9.312;2022-10-16T10:26:49;19.10;99.90
18173;DHT22;9211;48.818;9.312;2022-10-16T10:29:38;19.10;99.90
18173;DHT22;9211;48.818;9.312;2022-10-16T10:32:17;19.10;99.90
18173;DHT22;9211;48.818;9.312;2022-10-16T10:35:01;19.20;99.90
18173;DHT22;9211;48.818;9.312;2022-10-16T10:37:55;19.30;99.90
18173;DHT22;9211;48.818;9.312;2022-10-16T10:40:34;19.50;99.90
18173;DHT22;9211;48.818;9.312;2022-10-16T10:43:12;19.60;99.90
18173;DHT22;9211;48.818;9.312;2022-10-16T10:45:43;19.80;99.90
18173;DHT22;9211;48.818;9.312;2022-10-16T10:48:23;19.90;99.90
18173;DHT22;9211;48.818;9.312;2022-10-16T10:50:57;20.00;99.90
18173;DHT22;9211;48.818;9.312;2022-10-16T10:53:38;20.00;99.90
18173;DHT22;9211;48.818;9.312;2022-10-16T10:56:16;20.20;99.90
18173;DHT22;9211;48.818;9.312;2022-10-16T10:59:05;20.30;99.90
18173;DHT22;9211;48.818;9.312;2022-10-16T11:01:41;20.40;99.90
18173;DHT22;9211;48.818;9.312;2022-10-16T11:04:29;20.50;99.90
18173;DHT22;9211;48.818;9.312;2022-10-16T11:07:03;20.60;99.90
18173;DHT22;9211;48.818;9.312;2022-10-16T11:09:34;20.70;99.90
18173;DHT22;9211;48.818;9.312;2022-10-16T11:12:08;20.70;99.90
18173;DHT22;9211;48.818;9.312;2022-10-16T11:14:42;20.90;99.90
18173;DHT22;9211;48.818;9.312;2022-10-16T11:17:13;20.90;99.90
18173;DHT22;9211;48.818;9.312;2022-10-16T11:19:45;21.00;99.90
18173;DHT22;9211;48.818;9.312;2022-10-16T11:22:18;21.10;99.90
18173;DHT22;9211;48.818;9.312;2022-10-16T11:24:49;21.20;99.90
18173;DHT22;9211;48.818;9.312;2022-10-16T11:27:21;21.30;99.90
18173;DHT22;9211;48.818;9.312;2022-10-16T11:29:55;21.40;99.90
18173;DHT22;9211;48.818;9.312;2022-10-16T11:32:27;21.30;99.90
18173;DHT22;9211;48.818;9.312;2022-10-16T11:34:59;21.40;99.90
18173;DHT22;9211;48.818;9.312;2022-10-16T11:37:32;21.50;99.90
18173;DHT22;9211;48.818;9.312;2022-10-16T11:40:11;21.60;99.90
18173;DHT22;9211;48.818;9.312;2022-10-16T11:42:46;21.70;99.90
18173;DHT22;9211;48.818;9.312;2022-10-16T11:45:24;21.90;99.90
18173;DHT22;9211;48.818;9.312;2022-10-16T11:48:00;21.90;99.90
18173;DHT22;9211;48.818;9.312;2022-10-16T11:50:33;22.00;99.90
18173;DHT22;9211;48.818;9.312;2022-10-16T11:53:07;22.00;99.90
18173;DHT22;9211;48.818;9.312;2022-10-16T11:55:40;22.00;99.90
18173;DHT22;9211;48.818;9.312;2022-10-16T11:58:09;22.10;99.90
18173;DHT22;9211;48.818;9.312;2022-10-16T12:00:44;22.10;99.90
18173;DHT22;9211;48.818;9.312;2022-10-16T12:03:19;22.10;99.90
18173;DHT22;9211;48.818;9.312;2022-10-16T12:06:00;22.10;99.90
18173;DHT22;9211;48.818;9.312;2022-10-16T12:08:30;22.10;99.90
18173;DHT22;9211;48.818;9.312;2022-10-16T12:11:07;22.10;99.90
18173;DHT22;9211;48.818;9.312;2022-10-16T12:13:36;22.10;99.90
18173;DHT22;9211;48.818;9.312;2022-10-16T12:18:47;22.10;99.90
18173;DHT22;9211;48.818;9.312;2022-10-16T12:21:16;22.00;99.90
18173;DHT22;9211;48.818;9.312;2022-10-16T12:23:51;22.00;99.90
18173;DHT22;9211;48.818;9.312;2022-10-16T12:26:26;22.00;99.90
18173;DHT22;9211;48.818;9.312;2022-10-16T12:28:55;22.00;99.90
18173;DHT22;9211;48.818;9.312;2022-10-16T12:31:22;22.00;99.90
18173;DHT22;9211;48.818;9.312;2022-10-16T12:33:57;22.00;99.90
18173;DHT22;9211;48.818;9.312;2022-10-16T12:36:29;22.00;99.90
18173;DHT22;9211;48.818;9.312;2022-10-16T12:38:58;21.90;99.90
18173;DHT22;9211;48.818;9.312;2022-10-16T12:41:27;21.90;99.90
18173;DHT22;9211;48.818;9.312;2022-10-16T12:43:55;21.90;99.90
18173;DHT22;9211;48.818;9.312;2022-10-16T12:46:33;22.00;99.90
18173;DHT22;9211;48.818;9.312;2022-10-16T12:49:20;22.10;99.90
18173;DHT22;9211;48.818;9.312;2022-10-16T12:51:48;22.00;99.90
18173;DHT22;9211;48.818;9.312;2022-10-16T12:54:18;22.00;99.90
18173;DHT22;9211;48.818;9.312;2022-10-16T12:56:56;22.00;99.90
18173;DHT22;9211;48.818;9.312;2022-10-16T12:59:32;22.00;99.90
18173;DHT22;9211;48.818;9.312;2022-10-16T13:02:26;22.00;99.90
18173;DHT22;9211;48.818;9.312;2022-10-16T13:05:21;22.00;99.90
18173;DHT22;9211;48.818;9.312;2022-10-16T13:07:59;21.90;99.90
18173;DHT22;9211;48.818;9.312;2022-10-16T13:10:37;21.90;99.90
18173;DHT22;9211;48.818;9.312;2022-10-16T13:13:20;21.90;99.90
18173;DHT22;9211;48.818;9.312;2022-10-16T13:16:02;22.00;99.90
18173;DHT22;9211;48.818;9.312;2022-10-16T13:18:39;22.00;99.90
18173;DHT22;9211;48.818;9.312;2022-10-16T13:21:26;22.10;99.90
18173;DHT22;9211;48.818;9.312;2022-10-16T13:24:02;22.20;99.90
18173;DHT22;9211;48.818;9.312;2022-10-16T13:26:41;22.30;99.90
18173;DHT22;9211;48.818;9.312;2022-10-16T13:29:11;22.40;99.90
18173;DHT22;9211;48.818;9.312;2022-10-16T13:31:39;22.50;99.90
18173;DHT22;9211;48.818;9.312;2022-10-16T13:34:13;22.70;99.90
18173;DHT22;9211;48.818;9.312;2022-10-16T13:36:44;22.70;99.90
18173;DHT22;9211;48.818;9.312;2022-10-16T13:39:13;22.80;99.90
18173;DHT22;9211;48.818;9.312;2022-10-16T13:41:42;22.80;99.90
18173;DHT22;9211;48.818;9.312;2022-10-16T13:44:14;22.80;99.90
18173;DHT22;9211;48.818;9.312;2022-10-16T13:46:41;22.80;99.90
18173;DHT22;9211;48.818;9.312;2022-10-16T13:49:13;22.90;99.90
18173;DHT22;9211;48.818;9.312;2022-10-16T13:51:40;22.80;99.90
18173;DHT22;9211;48.818;9.312;2022-10-16T13:54:09;22.80;99.90
18173;DHT22;9211;48.818;9.312;2022-10-16T13:56:39;22.80;99.90
18173;DHT22;9211;48.818;9.312;2022-10-16T13:59:23;22.80;99.90
18173;DHT22;9211;48.818;9.312;2022-10-16T14:01:52;22.80;99.90
18173;DHT22;9211;48.818;9.312;2022-10-16T14:04:21;22.80;99.90
18173;DHT22;9211;48.818;9.312;2022-10-16T14:06:50;22.80;99.90
18173;DHT22;9211;48.818;9.312;2022-10-16T14:09:23;22.80;99.90
18173;DHT22;9211;48.818;9.312;2022-10-16T14:11:54;22.70;99.90
18173;DHT22;9211;48.818;9.312;2022-10-16T14:14:24;22.60;99.90
18173;DHT22;9211;48.818;9.312;2022-10-16T14:16:51;22.50;99.90
18173;DHT22;9211;48.818;9.312;2022-10-16T14:19:21;22.40;99.90
18173;DHT22;9211;48.818;9.312;2022-10-16T14:21:49;22.30;99.90
18173;DHT22;9211;48.818;9.312;2022-10-16T14:24:26;22.30;99.90
18173;DHT22;9211;48.818;9.312;2022-10-16T14:26:54;22.20;99.90
18173;DHT22;9211;48.818;9.312;2022-10-16T14:29:24;22.20;99.90
18173;DHT22;9211;48.818;9.312;2022-10-16T14:31:56;22.20;99.90
18173;DHT22;9211;48.818;9.312;2022-10-16T14:34:25;22.20;99.90
18173;DHT22;9211;48.818;9.312;2022-10-16T14:36:53;22.20;99.90
18173;DHT22;9211;48.818;9.312;2022-10-16T14:39:22;22.20;99.90
18173;DHT22;9211;48.818;9.312;2022-10-16T14:41:54;22.20;99.90
18173;DHT22;9211;48.818;9.312;2022-10-16T14:44:32;22.20;99.90
18173;DHT22;9211;48.818;9.312;2022-10-16T14:47:08;22.20;99.90
18173;DHT22;9211;48.818;9.312;2022-10-16T14:49:36;22.20;99.90
18173;DHT22;9211;48.818;9.312;2022-10-16T14:52:08;22.10;99.90
18173;DHT22;9211;48.818;9.312;2022-10-16T14:54:36;22.10;99.90
18173;DHT22;9211;48.818;9.312;2022-10-16T14:57:04;22.10;99.90
18173;DHT22;9211;48.818;9.312;2022-10-16T14:59:36;22.00;99.90
18173;DHT22;9211;48.818;9.312;2022-10-16T15:02:16;22.00;99.90
18173;DHT22;9211;48.818;9.312;2022-10-16T15:04:44;22.00;99.90
18173;DHT22;9211;48.818;9.312;2022-10-16T15:07:12;22.00;99.90
18173;DHT22;9211;48.818;9.312;2022-10-16T15:09:39;22.00;99.90
18173;DHT22;9211;48.818;9.312;2022-10-16T15:12:06;22.00;99.90
18173;DHT22;9211;48.818;9.312;2022-10-16T15:14:34;21.90;99.90
18173;DHT22;9211;48.818;9.312;2022-10-16T15:17:01;21.90;99.90
18173;DHT22;9211;48.818;9.312;2022-10-16T15:19:28;21.80;99.90
18173;DHT22;9211;48.818;9.312;2022-10-16T15:21:55;21.80;99.90
18173;DHT22;9211;48.818;9.312;2022-10-16T15:24:22;21.80;99.90
18173;DHT22;9211;48.818;9.312;2022-10-16T15:26:49;21.80;99.90
18173;DHT22;9211;48.818;9.312;2022-10-16T15:29:16;21.70;99.90
18173;DHT22;9211;48.818;9.312;2022-10-16T15:31:45;21.70;99.90
18173;DHT22;9211;48.818;9.312;2022-10-16T15:34:13;21.70;99.90
18173;DHT22;9211;48.818;9.312;2022-10-16T15:36:40;21.60;99.90
18173;DHT22;9211;48.818;9.312;2022-10-16T15:39:13;21.60;99.90
18173;DHT22;9211;48.818;9.312;2022-10-16T15:41:40;21.50;99.90
18173;DHT22;9211;48.818;9.312;2022-10-16T15:44:07;21.50;99.90
18173;DHT22;9211;48.818;9.312;2022-10-16T15:46:34;21.40;99.90
18173;DHT22;9211;48.818;9.312;2022-10-16T15:49:04;21.40;99.90
18173;DHT22;9211;48.818;9.312;2022-10-16T15:51:31;21.40;99.90
18173;DHT22;9211;48.818;9.312;2022-10-16T15:53:59;21.30;99.90
18173;DHT22;9211;48.818;9.312;2022-10-16T15:56:27;21.30;99.90
18173;DHT22;9211;48.818;9.312;2022-10-16T15:58:54;21.20;99.90
18173;DHT22;9211;48.818;9.312;2022-10-16T16:01:22;21.20;99.90
18173;DHT22;9211;48.818;9.312;2022-10-16T16:03:52;21.10;99.90
18173;DHT22;9211;48.818;9.312;2022-10-16T16:06:22;21.10;99.90
18173;DHT22;9211;48.818;9.312;2022-10-16T16:08:49;21.10;99.90
18173;DHT22;9211;48.818;9.312;2022-10-16T16:11:18;21.00;99.90